Text Box: All records at near 07:00 local time
Kleivo 1 weather for Jan 2010
Month no. 38
Obs.
Da.
Temp. Dew Point Precip. Wind
Speed
Wind gusts Cloud cover Press. Humidity Wind dir. Sunny OPT
01.01.2010 -5,3 -7,0 0,0 1,9 1,9 8 985,3 88,0 112,5 1 70,0 %
02.01.2010 -7,3 -12,4 0,5 0,0 0,0 8 1002,3 67,0 135,0 1 70,0 %
03.01.2010 -5,4 -9,3 0,0 0,0 0,0 8 1005,3 74,0 45,0 1 70,0 %
04.01.2010 -1,6 -3,2 0,0 0,0 0,0 1 993,5 89,0 90,0   55,0 %
05.01.2010 -6,9 -8,4 5,2 0,0 0,0 10 988,4 89,0 90,0 1 72,5 %
06.01.2010 -9,5 -12,9 1,0 5,6 5,6 10 995,5 76,0 45,0 1 72,5 %
07.01.2010 -8,5 -11,5 1,5 3,7 3,7 3 998,2 79,0 22,5 1 55,0 %
08.01.2010 -8,1 -13,5 1,5 7,4 7,4 3 1010,7 65,0 135,0   52,5 %
09.01.2010 -10,5 -13,1 0,0 3,7 4,0 10 1021,2 81,0 0,0 1 72,5 %
10.01.2010 -7,6 -9,8 0,5 9,3 9,3 10 1022,2 84,0 0,0 1 70,0 %
11.01.2010 -6,9 -9,6 0,0 7,4 7,4 10 1016,8 81,0 22,5 1 70,0 %
12.01.2010 -5,4 -7,7 0,5 0,0 0,0 10 1010,0 84,0 22,5 1 75,0 %
13.01.2010 4,0 -3,3 0,0 19,0 19,0 10 1000,9 59,0 112,5 1 70,0 %
14.01.2010 -0,1 -2,3 1,0 3,7 3,7 10 996,8 85,0 135,0 1 75,0 %
15.01.2010 0,3 -7,7 3,1 7,4 7,4 10 1002,9 55,0 157,5 1 72,5 %
16.01.2010 1,0 -5,5 0,5 11,1 11,1 1 1001,6 62,0 135,0   50,0 %
17.01.2010 2,0 -7,1 0,5 16,7 16,7 1 993,1 51,0 135,0   47,5 %
18.01.2010 0,4 -7,2 0,0 23,7 23,7 1 1001,6 57,0 112,5   42,5 %
19.01.2010 0,6 -2,9 0,0 3,7 3,7 1 1010,0 77,0 112,5   55,0 %
20.01.2010 -2,5 -4,1 0,5 1,9 1,9 8 1010,4 89,0 0,0 1 72,5 %
21.01.2010 -0,8 -9,4 0,0 16,7 16,7 1 1011,7 52,0 135,0   45,0 %
22.01.2010 -0,4 -9,3 0,0 5,8 5,8 10 1009,7 51,0 135,0 1 75,0 %
23.01.2010 0,3 -7,4 0,0 11,1 11,1 10 1013,4 56,0 112,5 1 72,5 %
24.01.2010 -1,0 -7,6 0,0 1,9 1,9 10 1016,1 61,0 0,0 1 77,5 %
25.01.2010 -1,4 -5,3 3,1 5,6 5,6 1 1020,9 75,0 157,5   50,0 %
26.01.2010 -1,8 -5,3 0,0 11,6 11,6 1 1024,6 77,0 135,0   47,5 %
27.01.2010 2,3 0,8 1,0 13,0 13,0 2 996,8 90,0 135,0   52,5 %
28.01.2010 -1,6 -3,3 9,2 1,9 1,9 2 981,3 88,0 337,5   50,0 %
29.01.2010 -6,7 -8,2 0,0 3,7 4,2 8 968,7 89,0 0,0 1 67,5 %
30.01.2010 -3,1 -4,7 0,5 22,2 22,2 10 969,1 89,0 157,5 1 60,0 %
31.01.2010 -2,5 -3,9 0,0 0,0 0,0 10 969,1 90,0 292,5 1 77,5 %
Avrg/Sum -3,0 -7,2 30,1 7,1 7,1 6,4 1001,6 74,5 103,8 20 63,4 %